首页
METAR-TAF:

METAR-TAF

机场 :

巴克烏, 罗马尼亚

纬度: 46-35N, 经度: 026-58E, 海拔: 184米

当前天气观测

该预报发布于17分钟前的20:00 UTC
风速4节,风向
温度 8°C
湿度 66%
气压 996 hPa
能见度10公里或以上
1500米以下无云,无积雨云

METAR: LRBC 262000Z 18004KT CAVOK 08/02 Q0996

时间: 22:17 (20:17 UTC)

预报

该预报发布于3小时和17分钟前的17:00 UTC
预报有效从26日的 18点(UTC)到 27日的 03点(UTC)
风速7节,风向
能见度10公里或以上
1500米以下无云,无积雨云
成为
从 27日的 01点(UTC)到 27日的 03点(UTC)
风速12节,风向北转西北

TAF: LRBC 261700Z 2618/2703 18007KT CAVOK BECMG 2701/2703 34012KT

超过4000个机场的气象观测和天气预报(METAR&TAF报告)。

可查询的气象台以黄色和红色小点在地图上表示。

将鼠标移到小点上方,可查看气象台名称。

然后点击查看天气观测和预报。

如需切换地图:点击带黑十字的绿色按钮放大地图;点击带横线的绿色按钮缩小地图;或者点击绿色箭头查看邻近地区的地图。


METAR-TAF: